Terminal Aerodrome Forecast
Issued by NWS

Home | Current Version | Previous Version | Text Only | Print | Product List | Glossary On
Versions: 1 2 3 4 5 6 7 8 9 10 11 12 13 14 15 16 17 18 19 20 21
000
FTAK31 PANC 290536
TAFAEN
TAF
PAEN 290536Z 2906/3006 07006KT P6SM -SHRA BKN050 OVC080
     FM291000 02015KT P6SM -RA SCT020 BKN035
     FM292100 03008KT P6SM -SHRA BKN060=

USA.gov is the U.S. government's official web portal to all federal, state and local government web resources and services.